Fosston, MN

8:39 AM CDT on October 14, 2019 (GMT -0500)
Fosston Municipal

Weather History for KFSE - September, 2019

Change the Weather History Date:

Tuesday, September 24, 2019

  Actual Average Record
Temperature  
Mean Temperature 60 °F -  
Max Temperature 69 °F 61 °F 82 °F (1949)
Min Temperature 50 °F 38 °F 24 °F (1985)
Degree Days  
Heating Degree Days 6    
Growing Degree Days 10 (Base 50)    
Moisture  
Dew Point 51 °F    
Average Humidity 76    
Maximum Humidity 94    
Minimum Humidity 56    
Precipitation  
Precipitation 0.02 in - - ()
Sea Level Pressure  
Sea Level Pressure 29.65 in    
Wind  
Wind Speed 10 mph ()    
Max Wind Speed 20 mph    
Max Gust Speed 28 mph    
Visibility 9.9 miles    
Events Rain , Thunderstorm    
Averages and records for this station are not official NWS values.
T = Trace of Precipitation, MM = Missing Value Source: Averaged Metar Reports

Daily Weather History Graph

Daily Weather History Graph

Search for Another Location

Airport or City:

Astronomy

Sep. 24, 2019 Rise Set
Actual Time 7:12 AM CDT 7:17 PM CDT
Civil Twilight 6:41 AM CDT 7:47 PM CDT
Nautical Twilight 6:05 AM CDT 8:23 PM CDT
Astronomical Twilight 5:28 AM CDT 9:00 PM CDT
Moon 1:32 AM CDT (9/24) 5:27 PM CDT (9/24)
Length of Visible Light 13h 06m
Length of Day
12h 04m
Waning Crescent, 23% of the Moon is Illuminated
Sep 24
Waning Crescent
Sep 28
New
Oct 5
First Quarter
Oct 13
Full
Oct 21
Last Quarter

Hourly Weather History & Observations

Time (CDT) Temp. Dew Point Humidity Pressure Visibility Wind Dir Wind Speed Gust Speed Precip Events Conditions
12:17 AM 55.4 °F 46.4 °F 72% 29.79 in 10.0 mi South 9.2 mph - N/A   Clear
12:35 AM 57.2 °F 46.4 °F 67% 29.78 in 10.0 mi South 12.7 mph - N/A   Clear
12:36 AM 57.2 °F 46.4 °F 67% 29.78 in 10.0 mi South 12.7 mph - N/A   Clear
12:57 AM 57.2 °F 46.4 °F 67% 29.77 in 10.0 mi South 15.0 mph - N/A   Clear
1:15 AM 59.0 °F 46.4 °F 63% 29.77 in 10.0 mi SSW 15.0 mph - N/A   Clear
1:16 AM 59.0 °F 46.4 °F 63% 29.77 in 10.0 mi SSW 13.8 mph - N/A   Clear
1:37 AM 59.0 °F 46.4 °F 63% 29.77 in 10.0 mi SSW 13.8 mph 20.7 mph N/A   Clear
1:55 AM 57.2 °F 46.4 °F 67% 29.77 in 10.0 mi SSW 13.8 mph 19.6 mph N/A   Clear
1:56 AM 57.2 °F 46.4 °F 67% 29.77 in 10.0 mi South 13.8 mph 19.6 mph N/A   Clear
2:18 AM 57.2 °F 46.4 °F 67% 29.76 in 10.0 mi South 13.8 mph - N/A   Clear
2:35 AM 57.2 °F 46.4 °F 67% 29.75 in 10.0 mi South 11.5 mph - N/A   Clear
2:59 AM 57.2 °F 46.4 °F 67% 29.75 in 10.0 mi SSW 11.5 mph - N/A   Clear
3:15 AM 57.2 °F 46.4 °F 67% 29.74 in 10.0 mi SSW 12.7 mph - N/A   Clear
3:16 AM 57.2 °F 46.4 °F 67% 29.74 in 10.0 mi SSW 11.5 mph - N/A   Clear
3:35 AM 57.2 °F 46.4 °F 67% 29.73 in 10.0 mi South 12.7 mph - N/A   Clear
3:56 AM 57.2 °F 46.4 °F 67% 29.72 in 10.0 mi South 11.5 mph - N/A   Clear
4:15 AM 57.2 °F 46.4 °F 67% 29.72 in 10.0 mi South 11.5 mph 16.1 mph N/A   Clear
4:16 AM 57.2 °F 46.4 °F 67% 29.72 in 10.0 mi South 12.7 mph 16.1 mph N/A   Clear
4:37 AM 57.2 °F 46.4 °F 67% 29.71 in 10.0 mi South 10.4 mph - N/A   Clear
4:55 AM 57.2 °F 46.4 °F 67% 29.71 in 10.0 mi SSW 11.5 mph - N/A   Clear
4:56 AM 57.2 °F 46.4 °F 67% 29.71 in 10.0 mi SSW 10.4 mph - N/A   Clear
5:18 AM 55.4 °F 46.4 °F 72% 29.71 in 10.0 mi SSW 11.5 mph - N/A   Clear
5:35 AM 55.4 °F 46.4 °F 72% 29.70 in 10.0 mi SSW 10.4 mph - N/A   Clear
5:59 AM 55.4 °F 46.4 °F 72% 29.70 in 10.0 mi SSW 8.1 mph - N/A   Clear
6:16 AM 53.6 °F 46.4 °F 77% 29.70 in 10.0 mi SW 5.8 mph - N/A   Clear
6:35 AM 53.6 °F 46.4 °F 77% 29.70 in 10.0 mi SSW 5.8 mph - N/A   Clear
6:36 AM 53.6 °F 46.4 °F 77% 29.70 in 10.0 mi SSW 5.8 mph - N/A   Clear
6:57 AM 53.6 °F 46.4 °F 77% 29.70 in 10.0 mi SSW 8.1 mph - N/A   Clear
7:15 AM 53.6 °F 48.2 °F 82% 29.71 in 10.0 mi SSW 8.1 mph - N/A   Mostly Cloudy
7:38 AM 55.4 °F 48.2 °F 77% 29.69 in 10.0 mi South 8.1 mph - N/A   Scattered Clouds
7:55 AM 55.4 °F 48.2 °F 77% 29.70 in 10.0 mi SSW 8.1 mph - N/A   Scattered Clouds
8:19 AM 55.4 °F 48.2 °F 77% 29.70 in 10.0 mi SSW 9.2 mph - N/A   Mostly Cloudy
8:35 AM 55.4 °F 48.2 °F 77% 29.69 in 10.0 mi SSW 8.1 mph - N/A   Mostly Cloudy
8:36 AM 55.4 °F 48.2 °F 77% 29.69 in 10.0 mi SSW 8.1 mph - N/A   Mostly Cloudy
8:55 AM 55.4 °F 48.2 °F 77% 29.69 in 10.0 mi South 5.8 mph - N/A   Scattered Clouds
9:17 AM 57.2 °F 50.0 °F 77% 29.70 in 10.0 mi SSW 5.8 mph - N/A   Mostly Cloudy
9:36 AM 57.2 °F 51.8 °F 82% 29.71 in 10.0 mi SW 8.1 mph - N/A   Overcast
9:57 AM 55.4 °F 51.8 °F 88% 29.72 in 10.0 mi SW 5.8 mph - N/A Rain Rain
10:15 AM 57.2 °F 51.8 °F 82% 29.71 in 10.0 mi SW 3.5 mph - N/A   Mostly Cloudy
10:39 AM 57.2 °F 51.8 °F 82% 29.73 in 7.0 mi SW 4.6 mph - N/A Rain Rain
10:55 AM 55.4 °F 53.6 °F 94% 29.71 in 10.0 mi South 6.9 mph - N/A Rain Light Rain
10:56 AM 55.4 °F 53.6 °F 94% 29.71 in 10.0 mi South 6.9 mph - N/A Rain Light Rain
11:15 AM 55.4 °F 53.6 °F 94% 29.71 in 10.0 mi South 5.8 mph - 0.01 in Rain Light Rain
11:16 AM 55.4 °F 53.6 °F 94% 29.71 in 10.0 mi SSW 5.8 mph - 0.01 in Rain Light Rain
11:37 AM 57.2 °F 55.4 °F 94% 29.70 in 10.0 mi South 9.2 mph - 0.01 in Rain Rain
11:55 AM 57.2 °F 55.4 °F 94% 29.67 in 10.0 mi SSE 11.5 mph - 0.01 in Rain Light Rain
11:56 AM 57.2 °F 55.4 °F 94% 29.67 in 10.0 mi SSE 11.5 mph - N/A Rain Light Rain
12:18 PM 57.2 °F 55.4 °F 94% 29.64 in 10.0 mi South 10.4 mph - N/A   Scattered Clouds
12:35 PM 60.8 °F 55.4 °F 82% 29.64 in 10.0 mi South 8.1 mph - N/A   Mostly Cloudy
12:58 PM 62.6 °F 55.4 °F 77% 29.60 in 10.0 mi South 10.4 mph - N/A   Scattered Clouds
1:39 PM 62.6 °F 55.4 °F 77% 29.58 in 10.0 mi SSW 10.4 mph - N/A   Scattered Clouds
1:56 PM 64.4 °F 57.2 °F 77% 29.57 in 10.0 mi SW 13.8 mph 18.4 mph N/A   Scattered Clouds
2:15 PM 66.2 °F 55.4 °F 68% 29.56 in 10.0 mi SW 15.0 mph - N/A   Scattered Clouds
2:37 PM 66.2 °F 55.4 °F 68% 29.56 in 10.0 mi SW 15.0 mph 21.9 mph N/A   Clear
2:55 PM 68.0 °F 57.2 °F 68% 29.56 in 10.0 mi SW 16.1 mph 21.9 mph N/A   Clear
2:56 PM 68.0 °F 57.2 °F 68% 29.56 in 10.0 mi SW 16.1 mph 21.9 mph N/A   Clear
3:18 PM 66.2 °F 55.4 °F 68% 29.57 in 10.0 mi SW 17.3 mph 27.6 mph N/A   Clear
3:35 PM 69.8 °F 55.4 °F 60% 29.56 in 10.0 mi WSW 19.6 mph 25.3 mph N/A   Clear
3:58 PM 68.0 °F 55.4 °F 64% 29.57 in 10.0 mi WSW 18.4 mph 26.5 mph N/A   Scattered Clouds
4:15 PM 68.0 °F 55.4 °F 64% 29.56 in 10.0 mi WSW 13.8 mph 20.7 mph N/A   Scattered Clouds
4:38 PM 69.8 °F 55.4 °F 60% 29.56 in 10.0 mi SW 13.8 mph 21.9 mph N/A   Scattered Clouds
4:55 PM 68.0 °F 55.4 °F 64% 29.56 in 10.0 mi WSW 13.8 mph 23.0 mph N/A   Scattered Clouds
5:18 PM 69.8 °F 53.6 °F 56% 29.56 in 10.0 mi West 12.7 mph 19.6 mph N/A   Scattered Clouds
5:35 PM 66.2 °F 51.8 °F 60% 29.57 in 10.0 mi West 15.0 mph 19.6 mph N/A   Clear
5:59 PM 64.4 °F 53.6 °F 68% 29.57 in 10.0 mi West 6.9 mph - N/A   Clear
6:15 PM 64.4 °F 53.6 °F 68% 29.58 in 10.0 mi West 6.9 mph - N/A   Clear
6:39 PM 62.6 °F 53.6 °F 72% 29.57 in 10.0 mi SW 5.8 mph - N/A   Clear
6:55 PM 64.4 °F 53.6 °F 68% 29.56 in 10.0 mi SW 6.9 mph - N/A   Clear
7:19 PM 60.8 °F 53.6 °F 77% 29.56 in 10.0 mi SW 5.8 mph - N/A   Clear
7:35 PM 59.0 °F 53.6 °F 82% 29.56 in 10.0 mi SW 5.8 mph - N/A   Clear
7:59 PM 57.2 °F 51.8 °F 82% 29.56 in 10.0 mi SW 5.8 mph - N/A   Clear
8:15 PM 55.4 °F 51.8 °F 88% 29.56 in 10.0 mi SW 4.6 mph - N/A   Clear
8:39 PM 53.6 °F 51.8 °F 94% 29.55 in 10.0 mi SSW 4.6 mph - N/A   Clear
8:55 PM 53.6 °F 50.0 °F 88% 29.55 in 10.0 mi SSW 5.8 mph - N/A   Clear
8:56 PM 53.6 °F 50.0 °F 88% 29.55 in 10.0 mi SSW 5.8 mph - N/A   Clear
9:19 PM 53.6 °F 51.8 °F 94% 29.54 in 10.0 mi SSW 5.8 mph - N/A   Clear
9:35 PM 53.6 °F 50.0 °F 88% 29.53 in 10.0 mi SSW 4.6 mph - N/A   Clear
9:36 PM 53.6 °F 50.0 °F 88% 29.53 in 10.0 mi SSW 4.6 mph - N/A   Clear
10:15 PM 55.4 °F 51.8 °F 88% 29.57 in 7.0 mi West 6.9 mph - 0.01 in Rain Light Rain
10:16 PM 55.4 °F 51.8 °F 88% 29.56 in 7.0 mi West 5.8 mph - 0.01 in Rain Light Rain
10:39 PM 55.4 °F 50.0 °F 82% 29.57 in 10.0 mi WNW 4.6 mph - 0.01 in Thunderstorm Scattered Clouds
10:55 PM 53.6 °F 50.0 °F 88% 29.57 in 10.0 mi WNW 4.6 mph - 0.01 in   Clear
10:56 PM 53.6 °F 50.0 °F 88% 29.57 in 10.0 mi WNW 4.6 mph - N/A   Clear
11:19 PM 51.8 °F 48.2 °F 88% 29.57 in 10.0 mi WNW 3.5 mph - N/A   Clear
11:35 PM 50.0 °F 48.2 °F 94% 29.58 in 10.0 mi WNW 6.9 mph - N/A   Clear
11:59 PM 51.8 °F 48.2 °F 88% 29.59 in 10.0 mi West 8.1 mph - N/A   Mostly Cloudy